createdAt,value
2022-12-11T00:02:09.226Z,58.75
2022-12-11T00:04:35.889Z,58.19
2022-12-11T00:07:02.523Z,58.02
2022-12-11T00:09:29.152Z,58.03
2022-12-11T00:11:55.969Z,57.45
2022-12-11T00:14:22.598Z,57.76
2022-12-11T00:16:49.305Z,57.92
2022-12-11T00:19:16.226Z,57.49
2022-12-11T00:21:42.876Z,57.61
2022-12-11T00:24:09.580Z,56.62
2022-12-11T00:26:36.201Z,57.20
2022-12-11T00:29:02.889Z,57.63
2022-12-11T00:31:29.592Z,58.68
2022-12-11T00:33:56.263Z,58.41
2022-12-11T00:36:25.093Z,59.01
2022-12-11T00:38:51.828Z,58.88
2022-12-11T00:41:18.482Z,58.55
2022-12-11T00:43:45.167Z,58.79
2022-12-11T00:46:11.878Z,58.96
2022-12-11T00:48:38.546Z,58.46
2022-12-11T00:51:05.411Z,58.76
2022-12-11T00:53:32.056Z,58.55
2022-12-11T00:55:58.700Z,58.62
2022-12-11T00:58:25.359Z,58.70
2022-12-11T01:00:52.010Z,58.72
2022-12-11T01:03:18.622Z,58.30
2022-12-11T01:05:52.590Z,58.70
2022-12-11T01:08:19.270Z,58.88
2022-12-11T01:10:45.944Z,58.74
2022-12-11T01:13:12.610Z,59.95
2022-12-11T01:15:42.024Z,58.89
2022-12-11T01:18:09.755Z,59.63
2022-12-11T01:20:37.890Z,60.01
2022-12-11T01:23:04.786Z,59.88
2022-12-11T01:25:31.423Z,59.54
2022-12-11T01:27:58.059Z,59.53
2022-12-11T01:30:25.273Z,59.92
2022-12-11T01:32:52.116Z,59.93
2022-12-11T01:35:18.965Z,59.61
2022-12-11T01:37:45.601Z,60.53
2022-12-11T01:40:14.042Z,59.92
2022-12-11T01:42:40.683Z,60.57
2022-12-11T01:45:24.702Z,60.52
2022-12-11T01:48:18.109Z,61.00
2022-12-11T01:50:50.575Z,60.79
2022-12-11T01:53:23.469Z,60.88
2022-12-11T01:55:50.648Z,61.20
2022-12-11T01:58:17.294Z,61.00
2022-12-11T02:00:43.963Z,61.22
2022-12-11T02:03:10.606Z,60.86
2022-12-11T02:05:37.249Z,61.62
2022-12-11T02:08:03.976Z,60.35
2022-12-11T02:10:57.188Z,60.32
2022-12-11T02:13:30.253Z,60.88
2022-12-11T02:16:06.027Z,60.43
2022-12-11T02:18:39.483Z,60.49
2022-12-11T02:21:08.891Z,60.42
2022-12-11T02:24:12.779Z,60.18
2022-12-11T02:27:14.773Z,60.52
2022-12-11T02:29:49.703Z,60.27
2022-12-11T02:32:25.242Z,61.23
2022-12-11T02:34:57.613Z,60.90
2022-12-11T02:37:25.202Z,60.24
2022-12-11T02:39:52.542Z,61.07
2022-12-11T02:42:19.191Z,61.22
2022-12-11T02:44:45.836Z,60.61
2022-12-11T02:47:12.942Z,60.44
2022-12-11T02:49:40.540Z,60.88
2022-12-11T02:52:07.176Z,60.72
2022-12-11T02:54:36.146Z,60.90
2022-12-11T02:57:08.873Z,59.91
2022-12-11T02:59:42.800Z,60.58
2022-12-11T03:02:09.489Z,60.64
2022-12-11T03:04:36.130Z,59.80
2022-12-11T03:07:07.252Z,59.99
2022-12-11T03:09:33.912Z,60.66
2022-12-11T03:12:00.555Z,60.71
2022-12-11T03:14:27.182Z,59.82
2022-12-11T03:17:04.058Z,60.60
2022-12-11T03:19:35.638Z,59.68
2022-12-11T03:22:24.663Z,59.48
2022-12-11T03:24:51.882Z,58.83
2022-12-11T03:27:27.546Z,59.61
2022-12-11T03:29:59.005Z,59.66
2022-12-11T03:32:28.287Z,59.64
2022-12-11T03:35:18.025Z,59.18
2022-12-11T03:37:44.648Z,59.24
2022-12-11T03:40:14.397Z,59.44
2022-12-11T03:42:41.036Z,59.29
2022-12-11T03:45:08.058Z,58.57
2022-12-11T03:47:34.885Z,58.64
2022-12-11T03:50:01.573Z,58.03
2022-12-11T03:52:28.203Z,58.01
2022-12-11T03:54:55.319Z,58.14
2022-12-11T03:57:22.782Z,57.89
2022-12-11T03:59:49.561Z,57.19
2022-12-11T04:02:16.212Z,57.79
2022-12-11T04:04:43.009Z,57.85
2022-12-11T04:07:09.672Z,57.14
2022-12-11T04:09:36.324Z,56.95
2022-12-11T04:12:03.003Z,57.18
2022-12-11T04:14:29.667Z,58.34
2022-12-11T04:16:56.610Z,58.06
2022-12-11T04:19:23.297Z,59.09
2022-12-11T04:21:49.918Z,59.01
2022-12-11T04:24:16.556Z,58.33
2022-12-11T04:26:46.470Z,58.56
2022-12-11T04:29:13.818Z,58.98
2022-12-11T04:31:40.477Z,58.72
2022-12-11T04:34:07.131Z,59.12
2022-12-11T04:36:33.783Z,58.93
2022-12-11T04:39:00.436Z,58.80
2022-12-11T04:41:27.083Z,57.88
2022-12-11T04:43:53.733Z,57.55
2022-12-11T04:46:21.373Z,56.37
2022-12-11T04:48:52.370Z,56.87
2022-12-11T04:51:22.223Z,56.76
2022-12-11T04:53:48.871Z,56.62
2022-12-11T04:56:15.686Z,57.02
2022-12-11T04:58:43.202Z,57.43
2022-12-11T05:01:10.899Z,56.86
2022-12-11T05:03:37.654Z,57.02
2022-12-11T05:06:04.534Z,57.02
2022-12-11T05:08:31.153Z,57.23
2022-12-11T05:11:02.375Z,56.72
2022-12-11T05:13:29.142Z,56.81
2022-12-11T05:15:55.999Z,56.45
2022-12-11T05:18:22.675Z,55.74
2022-12-11T05:21:02.233Z,56.61
2022-12-11T05:23:29.025Z,56.55
2022-12-11T05:25:56.573Z,56.76
2022-12-11T05:28:23.457Z,56.66
2022-12-11T05:31:01.403Z,56.07
2022-12-11T05:33:28.199Z,57.01
2022-12-11T05:35:54.825Z,56.73
2022-12-11T05:38:21.434Z,56.63
2022-12-11T05:41:01.161Z,57.79
2022-12-11T05:43:28.592Z,57.77
2022-12-11T05:45:55.237Z,58.00
2022-12-11T05:48:21.905Z,57.62
2022-12-11T05:51:00.272Z,57.48
2022-12-11T05:53:26.977Z,57.83
2022-12-11T05:55:53.621Z,58.24
2022-12-11T05:58:20.536Z,58.35
2022-12-11T06:00:47.677Z,58.04
2022-12-11T06:03:14.439Z,57.72
2022-12-11T06:05:41.634Z,57.66
2022-12-11T06:08:08.382Z,57.35
2022-12-11T06:10:35.034Z,58.31
2022-12-11T06:13:01.670Z,58.24
2022-12-11T06:15:29.007Z,57.91
2022-12-11T06:17:55.639Z,58.17
2022-12-11T06:20:22.252Z,58.60
2022-12-11T06:22:48.897Z,58.27
2022-12-11T06:25:15.567Z,58.40
2022-12-11T06:27:42.191Z,58.84
2022-12-11T06:30:09.326Z,59.00
2022-12-11T06:32:35.958Z,58.98
2022-12-11T06:35:02.598Z,58.76
2022-12-11T06:37:29.226Z,59.20
2022-12-11T06:39:55.856Z,58.76
2022-12-11T06:42:22.509Z,59.15
2022-12-11T06:44:49.128Z,58.81
2022-12-11T06:47:15.829Z,59.29
2022-12-11T06:49:42.482Z,59.42
2022-12-11T06:52:12.459Z,59.32
2022-12-11T06:54:41.686Z,59.35
2022-12-11T06:57:09.615Z,59.08
2022-12-11T06:59:36.389Z,58.90
2022-12-11T07:02:03.094Z,58.92
2022-12-11T07:04:29.760Z,59.44
2022-12-11T07:06:57.025Z,59.35
2022-12-11T07:09:24.295Z,60.01
2022-12-11T07:11:51.538Z,60.24
2022-12-11T07:14:18.156Z,60.34
2022-12-11T07:16:44.811Z,60.52
2022-12-11T07:19:11.469Z,60.17
2022-12-11T07:21:38.114Z,60.73
2022-12-11T07:24:05.033Z,60.83
2022-12-11T07:26:31.650Z,60.90
2022-12-11T07:28:58.320Z,60.82
2022-12-11T07:31:25.806Z,60.81
2022-12-11T07:33:59.656Z,60.82
2022-12-11T07:36:26.433Z,61.49
2022-12-11T07:38:53.158Z,61.15
2022-12-11T07:41:19.846Z,61.37
2022-12-11T07:43:46.469Z,61.52
2022-12-11T07:46:15.267Z,61.12
2022-12-11T07:48:42.699Z,61.10
2022-12-11T07:51:16.943Z,60.95
2022-12-11T07:53:44.306Z,61.11
2022-12-11T07:56:11.108Z,61.64
2022-12-11T07:58:37.739Z,61.09
2022-12-11T08:01:25.162Z,61.24
2022-12-11T08:03:52.117Z,61.36
2022-12-11T08:06:18.746Z,59.17
2022-12-11T08:08:45.381Z,55.01
2022-12-11T08:11:12.940Z,51.15
2022-12-11T08:13:39.633Z,50.94
2022-12-11T08:16:07.031Z,52.02
2022-12-11T08:18:34.225Z,52.95
2022-12-11T08:21:05.820Z,53.65
2022-12-11T08:23:32.529Z,54.73
2022-12-11T08:25:59.183Z,53.74
2022-12-11T08:28:27.291Z,54.41
2022-12-11T08:30:54.080Z,55.17
2022-12-11T08:33:20.758Z,55.94
2022-12-11T08:35:47.441Z,56.58
2022-12-11T08:38:14.350Z,56.21
2022-12-11T08:40:41.047Z,57.01
2022-12-11T08:43:07.664Z,56.18
2022-12-11T08:45:34.295Z,55.28
2022-12-11T08:48:00.961Z,54.11
2022-12-11T08:50:27.619Z,51.57
2022-12-11T08:52:54.321Z,47.28
2022-12-11T08:55:20.989Z,43.81
2022-12-11T08:57:47.656Z,41.17
2022-12-11T09:00:14.740Z,42.88
2022-12-11T09:02:41.860Z,42.26
2022-12-11T09:05:08.915Z,39.45
2022-12-11T09:07:36.356Z,38.05
2022-12-11T09:10:06.600Z,35.77
2022-12-11T09:12:34.253Z,34.21
2022-12-11T09:15:00.890Z,32.77
2022-12-11T09:17:27.587Z,31.92
2022-12-11T09:19:54.273Z,32.68
2022-12-11T09:22:20.894Z,35.39
2022-12-11T09:24:47.561Z,36.21
2022-12-11T09:27:14.173Z,33.62
2022-12-11T09:29:40.843Z,33.35
2022-12-11T09:32:07.475Z,33.34
2022-12-11T09:34:34.115Z,32.48
2022-12-11T09:37:00.767Z,30.55
2022-12-11T09:39:27.391Z,30.14
2022-12-11T09:42:08.699Z,30.34
2022-12-11T09:44:41.520Z,30.53
2022-12-11T09:47:23.279Z,31.85
2022-12-11T09:49:51.457Z,33.10
2022-12-11T09:52:27.590Z,34.56
2022-12-11T09:54:58.987Z,36.16
2022-12-11T09:57:34.196Z,37.63
2022-12-11T10:00:20.294Z,37.93
2022-12-11T10:03:18.511Z,39.14
2022-12-11T10:06:05.105Z,40.11
2022-12-11T10:08:56.234Z,41.19
2022-12-11T10:11:44.003Z,41.22
2022-12-11T10:14:17.339Z,41.95
2022-12-11T10:16:49.072Z,42.63
2022-12-11T10:19:26.288Z,42.82
2022-12-11T10:21:52.952Z,43.83
2022-12-11T10:24:57.871Z,43.29
2022-12-11T10:27:19.783Z,43.16
2022-12-11T10:30:00.909Z,44.47
2022-12-11T10:33:03.083Z,44.73
2022-12-11T10:35:31.518Z,44.85
2022-12-11T10:38:16.524Z,44.99
2022-12-11T10:40:45.930Z,45.23
2022-12-11T10:43:12.594Z,45.02
2022-12-11T10:45:39.237Z,45.16
2022-12-11T10:48:11.832Z,45.10
2022-12-11T10:50:38.473Z,45.70
2022-12-11T10:53:05.358Z,45.30
2022-12-11T10:55:39.287Z,45.55
2022-12-11T10:58:05.915Z,45.90
2022-12-11T11:00:36.963Z,46.43
2022-12-11T11:03:36.526Z,46.96
2022-12-11T11:06:16.929Z,46.32
2022-12-11T11:08:45.598Z,46.52
2022-12-11T11:11:26.859Z,47.17
2022-12-11T11:14:09.962Z,47.28
2022-12-11T11:16:37.470Z,46.91
2022-12-11T11:19:04.107Z,47.47
2022-12-11T11:21:30.874Z,47.28
2022-12-11T11:23:57.570Z,48.58
2022-12-11T11:26:30.793Z,48.04
2022-12-11T11:29:23.037Z,47.71
2022-12-11T11:31:49.728Z,47.75
2022-12-11T11:34:19.492Z,48.63
2022-12-11T11:36:46.119Z,48.27
2022-12-11T11:39:31.902Z,48.30
2022-12-11T11:42:13.687Z,48.36
2022-12-11T11:44:43.447Z,48.74
2022-12-11T11:47:48.789Z,48.55
2022-12-11T11:50:18.178Z,48.33
2022-12-11T11:52:56.011Z,48.58
2022-12-11T11:55:31.909Z,48.99
2022-12-11T11:58:23.512Z,49.07
2022-12-11T12:00:50.431Z,48.61
2022-12-11T12:03:19.395Z,48.90
2022-12-11T12:05:49.998Z,49.08
2022-12-11T12:08:25.621Z,49.04
2022-12-11T12:11:01.733Z,49.41
2022-12-11T12:13:55.617Z,49.87
2022-12-11T12:19:48.149Z,49.77
2022-12-11T12:22:40.214Z,50.11
2022-12-11T12:25:31.933Z,50.50
2022-12-11T12:28:35.693Z,50.53
2022-12-11T12:31:14.479Z,50.72
2022-12-11T12:33:48.317Z,50.17
2022-12-11T12:36:36.742Z,48.97
2022-12-11T12:39:43.969Z,49.03
2022-12-11T12:42:36.746Z,49.77
2022-12-11T12:45:12.902Z,48.85
2022-12-11T12:47:39.707Z,49.66
2022-12-11T12:50:12.209Z,49.98
2022-12-11T12:52:39.262Z,49.71
2022-12-11T12:55:26.775Z,49.56
2022-12-11T12:57:55.738Z,50.46
2022-12-11T13:00:39.194Z,49.40
2022-12-11T13:03:20.504Z,50.75
2022-12-11T13:06:01.115Z,50.62
2022-12-11T13:08:31.600Z,50.35
2022-12-11T13:11:06.313Z,50.92
2022-12-11T13:13:35.898Z,51.10
2022-12-11T13:16:17.534Z,50.39
2022-12-11T13:18:45.505Z,50.65
2022-12-11T13:21:36.090Z,50.73
2022-12-11T13:24:21.743Z,50.53
2022-12-11T13:26:49.331Z,50.99
2022-12-11T13:29:32.661Z,50.97
2022-12-11T13:32:01.662Z,51.02
2022-12-11T13:34:32.209Z,51.82
2022-12-11T13:36:59.803Z,51.86
2022-12-11T13:39:28.420Z,51.40
2022-12-11T13:41:57.769Z,51.94
2022-12-11T13:44:28.540Z,52.76
2022-12-11T13:46:58.878Z,53.09
2022-12-11T13:49:38.903Z,53.45
2022-12-11T13:52:06.482Z,53.29
2022-12-11T13:54:36.815Z,52.89
2022-12-11T13:57:07.988Z,52.24
2022-12-11T13:59:38.533Z,52.17
2022-12-11T14:02:14.942Z,52.40
2022-12-11T14:04:43.499Z,52.17
2022-12-11T14:07:10.187Z,53.20
2022-12-11T14:09:39.815Z,53.06
2022-12-11T14:12:06.678Z,52.41
2022-12-11T14:14:40.653Z,52.24
2022-12-11T14:17:12.446Z,52.18
2022-12-11T14:19:39.196Z,51.60
2022-12-11T14:22:05.930Z,51.84
2022-12-11T14:24:32.611Z,51.88
2022-12-11T14:26:59.904Z,51.99
2022-12-11T14:29:33.557Z,52.24
2022-12-11T14:32:05.061Z,52.25
2022-12-11T14:34:36.926Z,52.01
2022-12-11T14:37:06.330Z,52.34
2022-12-11T14:39:41.954Z,52.31
2022-12-11T14:42:18.762Z,53.02
2022-12-11T14:44:49.443Z,52.47
2022-12-11T14:47:21.503Z,53.70
2022-12-11T14:50:08.248Z,54.12
2022-12-11T14:52:50.683Z,54.02
2022-12-11T14:55:22.871Z,54.19
2022-12-11T14:57:50.661Z,54.68
2022-12-11T15:00:31.126Z,54.69
2022-12-11T15:03:18.972Z,54.45
2022-12-11T15:05:56.123Z,55.30
2022-12-11T15:08:27.343Z,55.73
2022-12-11T15:11:13.419Z,55.70
2022-12-11T15:13:57.953Z,56.25
2022-12-11T15:16:25.282Z,56.00
2022-12-11T15:18:53.522Z,56.24
2022-12-11T15:21:20.165Z,56.08
2022-12-11T15:23:51.160Z,55.75
2022-12-11T15:26:17.948Z,56.54
2022-12-11T15:28:44.712Z,55.80
2022-12-11T15:31:30.433Z,56.57
2022-12-11T15:33:57.121Z,56.41
2022-12-11T15:36:26.258Z,56.67
2022-12-11T15:38:52.907Z,56.67
2022-12-11T15:41:19.796Z,56.72
2022-12-11T15:43:46.482Z,56.99
2022-12-11T15:46:13.229Z,57.67
2022-12-11T15:48:39.874Z,57.40
2022-12-11T15:51:06.543Z,57.26
2022-12-11T15:53:33.206Z,57.20
2022-12-11T15:55:59.859Z,57.37
2022-12-11T15:58:26.546Z,57.55
2022-12-11T16:00:53.621Z,58.08
2022-12-11T16:03:21.285Z,58.33
2022-12-11T16:05:49.112Z,57.72
2022-12-11T16:08:18.303Z,58.30
2022-12-11T16:10:45.086Z,58.42
2022-12-11T16:13:11.917Z,58.58
2022-12-11T16:15:39.381Z,58.36
2022-12-11T16:18:07.547Z,58.19
2022-12-11T16:20:35.011Z,58.36
2022-12-11T16:23:01.715Z,59.01
2022-12-11T16:25:28.435Z,58.97
2022-12-11T16:27:58.612Z,59.41
2022-12-11T16:30:26.079Z,59.25
2022-12-11T16:32:52.777Z,59.14
2022-12-11T16:35:19.746Z,59.05
2022-12-11T16:37:49.149Z,58.54
2022-12-11T16:40:15.887Z,59.01
2022-12-11T16:42:42.538Z,59.49
2022-12-11T16:45:12.806Z,59.16
2022-12-11T16:47:39.594Z,59.70
2022-12-11T16:50:06.750Z,59.33
2022-12-11T16:52:33.450Z,59.40
2022-12-11T16:55:00.098Z,58.86
2022-12-11T16:57:26.759Z,59.04
2022-12-11T16:59:53.586Z,58.97
2022-12-11T17:02:20.449Z,59.13
2022-12-11T17:04:53.523Z,59.12
2022-12-11T17:07:20.603Z,59.47
2022-12-11T17:09:48.282Z,58.56
2022-12-11T17:12:15.007Z,58.51
2022-12-11T17:14:41.718Z,58.46
2022-12-11T17:17:08.381Z,58.43
2022-12-11T17:19:35.484Z,58.61
2022-12-11T17:22:02.174Z,58.78
2022-12-11T17:24:29.213Z,58.11
2022-12-11T17:26:55.899Z,57.95
2022-12-11T17:29:22.614Z,57.92
2022-12-11T17:31:49.280Z,57.91
2022-12-11T17:34:15.919Z,58.06
2022-12-11T17:36:42.543Z,57.58
2022-12-11T17:39:09.187Z,57.74
2022-12-11T17:41:35.851Z,56.59
2022-12-11T17:44:02.519Z,57.07
2022-12-11T17:46:29.253Z,56.82
2022-12-11T17:48:56.305Z,57.03
2022-12-11T17:51:23.997Z,56.94
2022-12-11T17:53:51.636Z,56.85
2022-12-11T17:56:19.139Z,56.62
2022-12-11T17:58:45.866Z,56.51
2022-12-11T18:01:12.628Z,57.22
2022-12-11T18:03:42.051Z,56.75
2022-12-11T18:06:10.965Z,56.82
2022-12-11T18:08:37.735Z,56.04
2022-12-11T18:11:11.531Z,56.17
2022-12-11T18:13:38.367Z,55.89
2022-12-11T18:16:07.011Z,55.94
2022-12-11T18:18:36.529Z,56.67
2022-12-11T18:21:03.183Z,56.07
2022-12-11T18:23:29.838Z,56.16
2022-12-11T18:25:56.650Z,56.12
2022-12-11T18:28:23.319Z,56.61
2022-12-11T18:30:50.014Z,56.41
2022-12-11T18:33:16.664Z,56.02
2022-12-11T18:35:43.919Z,56.30
2022-12-11T18:38:10.606Z,56.74
2022-12-11T18:40:37.999Z,56.90
2022-12-11T18:43:04.879Z,56.92
2022-12-11T18:45:31.618Z,57.40
2022-12-11T18:47:58.262Z,57.76
2022-12-11T18:50:25.243Z,57.46
2022-12-11T18:52:55.376Z,57.37
2022-12-11T18:55:22.023Z,57.48
2022-12-11T18:57:48.671Z,56.79
2022-12-11T19:00:15.837Z,56.90
2022-12-11T19:02:42.541Z,56.58
2022-12-11T19:05:09.540Z,56.49
2022-12-11T19:07:36.471Z,56.55
2022-12-11T19:10:03.491Z,56.61
2022-12-11T19:12:30.178Z,56.39
2022-12-11T19:14:56.856Z,56.22
2022-12-11T19:17:23.515Z,56.18
2022-12-11T19:19:50.425Z,56.13
2022-12-11T19:22:17.536Z,56.12
2022-12-11T19:24:44.443Z,56.35
2022-12-11T19:27:13.719Z,56.39
2022-12-11T19:29:40.576Z,56.87
2022-12-11T19:32:07.245Z,56.63
2022-12-11T19:34:34.092Z,57.14
2022-12-11T19:37:00.757Z,57.10
2022-12-11T19:39:27.412Z,56.97
2022-12-11T19:41:54.266Z,57.74
2022-12-11T19:44:20.988Z,57.37
2022-12-11T19:46:47.760Z,57.09
2022-12-11T19:49:14.445Z,57.20
2022-12-11T19:51:41.692Z,56.59
2022-12-11T19:54:09.754Z,56.46
2022-12-11T19:56:36.417Z,56.93
2022-12-11T19:59:04.086Z,56.84
2022-12-11T20:01:31.690Z,56.95
2022-12-11T20:03:59.459Z,57.07
2022-12-11T20:06:27.807Z,57.29
2022-12-11T20:08:54.547Z,57.23
2022-12-11T20:11:21.268Z,57.44
2022-12-11T20:13:48.050Z,57.07
2022-12-11T20:16:14.927Z,56.56
2022-12-11T20:18:41.617Z,56.66
2022-12-11T20:21:11.297Z,56.76
2022-12-11T20:23:38.006Z,57.03
2022-12-11T20:26:08.537Z,57.21
2022-12-11T20:28:35.237Z,57.25
2022-12-11T20:31:13.571Z,58.03
2022-12-11T20:33:43.349Z,57.80
2022-12-11T20:36:14.285Z,58.21
2022-12-11T20:38:40.970Z,57.83
2022-12-11T20:41:12.747Z,57.86
2022-12-11T20:43:39.620Z,57.80
2022-12-11T20:46:07.276Z,57.11
2022-12-11T20:48:34.028Z,57.12
2022-12-11T20:51:01.473Z,57.32
2022-12-11T20:53:28.161Z,57.68
2022-12-11T20:55:54.882Z,56.83
2022-12-11T20:58:21.528Z,56.34
2022-12-11T21:00:48.357Z,56.15
2022-12-11T21:03:15.013Z,56.26
2022-12-11T21:05:41.776Z,55.52
2022-12-11T21:08:08.914Z,56.33
2022-12-11T21:10:35.614Z,55.93
2022-12-11T21:13:02.458Z,55.56
2022-12-11T21:15:29.103Z,55.72
2022-12-11T21:17:55.787Z,56.13
2022-12-11T21:20:22.430Z,56.06
2022-12-11T21:22:49.063Z,56.18
2022-12-11T21:25:15.806Z,56.10
2022-12-11T21:27:42.471Z,56.54
2022-12-11T21:30:09.385Z,56.25
2022-12-11T21:32:36.014Z,56.77
2022-12-11T21:35:02.739Z,56.57
2022-12-11T21:37:29.413Z,56.54
2022-12-11T21:39:56.546Z,56.42
2022-12-11T21:42:23.897Z,56.62
2022-12-11T21:45:37.562Z,56.79
2022-12-11T21:47:37.244Z,56.45
2022-12-11T21:50:04.451Z,56.86
2022-12-11T21:52:31.184Z,56.37
2022-12-11T21:54:57.811Z,56.77
2022-12-11T21:57:26.600Z,56.03
2022-12-11T21:59:53.515Z,56.19
2022-12-11T22:02:20.219Z,56.17
2022-12-11T22:04:46.879Z,55.70
2022-12-11T22:07:13.626Z,56.20
2022-12-11T22:09:40.273Z,56.19
2022-12-11T22:12:07.005Z,55.89
2022-12-11T22:14:33.621Z,55.82
2022-12-11T22:17:00.297Z,56.05
2022-12-11T22:19:32.328Z,55.85
2022-12-11T22:21:59.417Z,56.40
2022-12-11T22:24:26.075Z,56.01
2022-12-11T22:26:52.735Z,55.83
2022-12-11T22:29:19.371Z,55.73
2022-12-11T22:31:46.040Z,55.73
2022-12-11T22:34:12.670Z,56.02
2022-12-11T22:36:39.314Z,56.17
2022-12-11T22:39:05.999Z,56.23
2022-12-11T22:41:32.921Z,56.13
2022-12-11T22:43:59.572Z,56.22
2022-12-11T22:46:28.245Z,56.96
2022-12-11T22:48:54.935Z,56.74
2022-12-11T22:51:21.634Z,57.40
2022-12-11T22:53:48.273Z,56.63
2022-12-11T22:56:14.923Z,56.82
2022-12-11T22:58:41.561Z,57.30
2022-12-11T23:01:12.958Z,56.46
2022-12-11T23:03:39.689Z,56.52
2022-12-11T23:06:09.049Z,56.38
2022-12-11T23:08:36.801Z,56.64
2022-12-11T23:11:10.367Z,57.06
2022-12-11T23:13:37.003Z,56.79
2022-12-11T23:16:03.642Z,56.96
2022-12-11T23:18:30.294Z,56.92
2022-12-11T23:20:56.947Z,57.76
2022-12-11T23:23:23.610Z,58.10
2022-12-11T23:25:50.323Z,57.98
2022-12-11T23:28:16.945Z,57.49
2022-12-11T23:30:43.628Z,57.50
2022-12-11T23:33:10.276Z,57.69
2022-12-11T23:35:36.921Z,57.59
2022-12-11T23:38:03.597Z,57.45
2022-12-11T23:40:30.225Z,57.79
2022-12-11T23:42:56.846Z,58.02
2022-12-11T23:45:23.546Z,57.71
2022-12-11T23:47:50.158Z,57.31
2022-12-11T23:50:16.785Z,57.47
2022-12-11T23:52:43.428Z,57.65
2022-12-11T23:55:10.759Z,57.57
2022-12-11T23:57:37.624Z,57.27
